ASN logo
Last updated: 19 October 2019
Statuts:Enquête Préliminaire
Date:mardi 6 août 2019
Heure:00:36
Type/Sous-type:Silhouette image of generic C56X model; specific model in this crash may look slightly different
Cessna 560XLS+ Citation XLS+
Compagnie:Aerowest
Immatriculation: D-CAWM
Numéro de série: 560-6002
Année de Fabrication: 2008
Moteurs: 2 Pratt & Whitney Canada PW545C
Equipage:victimes: 0 / à bord: 3
Passagers:victimes: 0 / à bord: 7
Total:victimes: 0 / à bord: 10
Dégats de l'appareil: Détruit
Conséquences: Written off (damaged beyond repair)
Lieu de l'accident:Aarhus Airport (AAR) (   Danemark)
Phase de vol: A l'atterrissage (LDG)
Nature:Charter International
Aéroport de départ:Oslo-Gardermoen Airport (OSL/ENGM), Norvège
Aéroport de destination:Aarhus Airport (AAR/EKAH), Danemark
Détails:
A Cessna Citation XLS+ was damaged beyond repair when it collided with aerials short of runway 10R at Aarhus Airport. The eleven occupants were not injured.
The aircraft was hired for the manager and tour members of pop star P!nk for a flight from Oslo, Norway, to Aarhus, Denmark.
The flight was uneventful until the landing phase. At 00:09 local time, the first officer established radio contact with Aarhus Tower and received information that included an expected landing on runway 10R, wind from 140° at 2 knots and a visibility of 250 meters and a Runway Visual Range (RVR) of 900 m, 750 m, and 400 m in fog patches. The commander made an approach briefing for the ILS to runway 10R. At 00:20, after contacting Aarhus Approach, the flight was cleared to descend to 3000 feet. The controller subsequently issued further course and descent instructions. Due the weather conditions, the air traffic controller planned to set up the aircraft on a long final allowing the flight crew to be properly established before the final approach. At 00:31, the air traffic controller instructed the flight crew to turn left on heading 130° and cleared the flight crew to perform an ILS approach to runway 10R. When established on the localizer for runway 10R and shortly before leaving 2000 ft on the glide path, the commander through shallow fog obtained visual contact with the runway. The aircraft was configured for landing and became established on the glide slope. The flight was then cleared to land. Prior to reaching an altitude of 500 feet, the aircraft began to descend below the glide slope. When the EGPWS began to sound, warning the crew of their descent below the glide slope, the first officer asked the captain whether to cancel the EGPWS warnings. The captain confirmed. The descent was continued.
Approximately 450 m before the beginning of runway 10R the aircraft collided with the antenna mast system of the localizer for runway 28L, which ruptured the left wing fuel tank. After a landing roll of approximately 60 meters, the nose landing gear collided with the near field antenna of the localizer for runway 28L and collapsed. While rolling on the main wheels and skidding on the nose section, the aircraft entered the stopway for runway 28L
.The aircraft came to a full stop approximately 230 m after the beginning of runway 10R. Leaking fuel ignited and caught fire on the aft left-hand side of the fuselage.

Accident investigation:
Investigating agency: HCLJ Denmark
Status: Investigation ongoing

Sources:
» thelocal.dk
» Preliminary report

METAR Weather report:
22:20 UTC / 00:20 local time:
EKAH 052220Z AUTO 11001KT 0200NDV R10R/0650N R28L/0900N BCFG BKN064/// 16/16 Q1008

22:50 UTC / 00:50 local time:
EKAH 052250Z AUTO 17002KT 0350NDV R10R/P1500U R28L/P1500N FG FEW001/// SCT064/// BKN099/// 16/16 Q1008

23:20 UTC / 01:20 local time:
EKAH 052320Z AUTO 15002KT 9000NDV FEW054/// FEW068/// BKN092/// 16/16 Q1007


Photos

photo of Cessna-560XLS-Citation-XLS-D-CAWM
accident date: 06-08-2019
type: Cessna 560XLS+ Citation XLS+
registration: D-CAWM
 

Video, social media

Plan
Ce plan montre l'aéroport de départ ainsi que la supposée destination du vol. La ligne fixe reliant les deux aéroports n'est pas le plan de vol exact.
La distance entre Oslo-Gardermoen Airport et Aarhus Airport est de 431 km (269 miles).

Les informations ci-dessus ne représentent pas l'opinion de la 'Flight Safety Foundation' ou de 'Aviation Safety Network' sur les causes de l'accident. Ces informations prélimimaires sont basées sur les faits tel qu'ils sont connus à ce jour.
languages: languages

Share